createdAt,value
2019-01-03T00:04:41.060Z,7.03
2019-01-03T00:10:22.482Z,7.17
2019-01-03T00:15:50.134Z,7.87
2019-01-03T00:21:27.731Z,8.10
2019-01-03T00:26:53.829Z,6.73
2019-01-03T00:32:19.448Z,7.77
2019-01-03T00:37:43.550Z,6.17
2019-01-03T00:43:06.089Z,7.63
2019-01-03T00:48:33.325Z,7.40
2019-01-03T00:53:56.986Z,7.70
2019-01-03T00:59:34.632Z,7.30
2019-01-03T01:04:57.782Z,7.20
2019-01-03T01:10:37.835Z,7.10
2019-01-03T01:16:01.430Z,6.77
2019-01-03T01:21:26.045Z,6.70
2019-01-03T01:27:00.059Z,6.90
2019-01-03T01:32:23.556Z,6.93
2019-01-03T01:37:53.040Z,6.63
2019-01-03T01:43:20.370Z,6.60
2019-01-03T01:48:45.076Z,6.80
2019-01-03T01:54:09.706Z,6.40
2019-01-03T01:59:35.909Z,6.03
2019-01-03T02:05:05.970Z,6.60
2019-01-03T02:10:32.051Z,6.07
2019-01-03T02:16:11.598Z,6.43
2019-01-03T02:21:39.033Z,6.03
2019-01-03T02:27:02.761Z,5.60
2019-01-03T02:32:45.039Z,6.50
2019-01-03T02:38:18.394Z,6.07
2019-01-03T02:43:43.796Z,5.80
2019-01-03T02:49:08.076Z,6.63
2019-01-03T02:54:30.440Z,5.17
2019-01-03T03:00:12.252Z,5.30
2019-01-03T03:05:43.919Z,5.77
2019-01-03T03:11:24.216Z,5.70
2019-01-03T03:16:53.225Z,5.03
2019-01-03T03:22:14.610Z,4.97
2019-01-03T03:27:41.293Z,4.57
2019-01-03T03:33:08.625Z,5.30
2019-01-03T03:38:34.254Z,5.13
2019-01-03T03:44:04.321Z,4.70
2019-01-03T03:49:32.240Z,4.77
2019-01-03T03:54:55.437Z,4.57
2019-01-03T04:00:13.014Z,4.97
2019-01-03T04:05:40.593Z,4.07
2019-01-03T04:11:18.580Z,4.67
2019-01-03T04:16:38.450Z,4.27
2019-01-03T04:22:04.097Z,3.97
2019-01-03T04:27:28.772Z,3.83
2019-01-03T04:33:00.889Z,3.67
2019-01-03T04:38:35.433Z,3.60
2019-01-03T04:44:15.508Z,3.93
2019-01-03T04:49:44.046Z,3.43
2019-01-03T04:55:20.864Z,3.53
2019-01-03T05:01:01.399Z,3.30
2019-01-03T05:06:26.642Z,2.77
2019-01-03T05:11:58.788Z,3.00
2019-01-03T05:17:24.417Z,3.73
2019-01-03T05:22:52.520Z,2.90
2019-01-03T05:28:16.304Z,2.93
2019-01-03T05:33:53.801Z,2.97
2019-01-03T05:39:19.856Z,3.97
2019-01-03T05:44:43.210Z,2.87
2019-01-03T05:50:21.842Z,3.40
2019-01-03T05:55:45.155Z,2.90
2019-01-03T06:01:10.885Z,2.83
2019-01-03T06:06:53.950Z,2.97
2019-01-03T06:12:17.464Z,2.67
2019-01-03T06:17:41.981Z,2.53
2019-01-03T06:23:23.633Z,2.83
2019-01-03T06:29:00.955Z,2.73
2019-01-03T06:34:25.918Z,2.70
2019-01-03T06:39:50.880Z,2.43
2019-01-03T06:45:33.261Z,2.60
2019-01-03T06:50:53.443Z,2.40
2019-01-03T06:56:24.881Z,3.00
2019-01-03T07:01:48.775Z,2.30
2019-01-03T07:07:25.361Z,3.10
2019-01-03T07:12:49.580Z,2.70
2019-01-03T07:18:08.847Z,2.43
2019-01-03T07:23:26.855Z,2.37
2019-01-03T07:28:54.995Z,3.83
2019-01-03T07:34:34.904Z,2.60
2019-01-03T07:39:58.610Z,2.60
2019-01-03T07:45:41.205Z,2.40
2019-01-03T07:51:00.909Z,2.60
2019-01-03T07:56:43.396Z,2.40
2019-01-03T08:02:19.629Z,2.67
2019-01-03T08:07:42.691Z,2.30
2019-01-03T08:13:06.849Z,2.60
2019-01-03T08:18:33.318Z,2.47
2019-01-03T08:24:08.886Z,2.67
2019-01-03T08:29:32.984Z,2.70
2019-01-03T08:34:49.489Z,3.20
2019-01-03T08:40:12.312Z,2.80
2019-01-03T08:45:52.360Z,3.07
2019-01-03T08:51:17.996Z,2.90
2019-01-03T08:56:51.312Z,2.50
2019-01-03T09:02:17.820Z,2.50
2019-01-03T09:07:45.318Z,2.10
2019-01-03T09:13:29.166Z,1.83
2019-01-03T09:18:51.798Z,2.17
2019-01-03T09:24:15.506Z,2.20
2019-01-03T09:29:39.410Z,2.73
2019-01-03T09:35:19.355Z,2.27
2019-01-03T09:40:44.872Z,2.40
2019-01-03T09:45:50.299Z,2.17
2019-01-03T09:50:56.329Z,2.73
2019-01-03T09:56:02.670Z,2.57
2019-01-03T10:01:09.201Z,3.07
2019-01-03T10:06:15.736Z,2.40
2019-01-03T10:11:23.797Z,2.93
2019-01-03T10:16:29.957Z,2.60
2019-01-03T10:21:36.133Z,2.50
2019-01-03T10:26:44.385Z,2.20
2019-01-03T10:31:51.478Z,2.30
2019-01-03T10:36:57.308Z,2.23
2019-01-03T10:42:02.641Z,1.43
2019-01-03T10:47:08.635Z,2.07
2019-01-03T10:52:14.728Z,1.77
2019-01-03T10:57:22.103Z,1.50
2019-01-03T11:02:29.324Z,2.17
2019-01-03T11:07:36.194Z,2.40
2019-01-03T11:12:42.920Z,2.40
2019-01-03T11:17:50.310Z,2.00
2019-01-03T11:22:56.648Z,2.10
2019-01-03T11:28:03.589Z,2.63
2019-01-03T11:33:09.757Z,1.93
2019-01-03T11:38:17.072Z,1.47
2019-01-03T11:43:23.489Z,1.50
2019-01-03T11:48:30.409Z,1.17
2019-01-03T11:53:36.345Z,1.40
2019-01-03T11:58:43.953Z,1.37
2019-01-03T12:03:50.893Z,1.20
2019-01-03T12:08:56.627Z,1.13
2019-01-03T12:14:03.514Z,1.40
2019-01-03T12:19:09.898Z,1.60
2019-01-03T12:24:16.423Z,1.67
2019-01-03T12:29:22.769Z,1.30
2019-01-03T12:34:30.204Z,1.67
2019-01-03T12:39:36.589Z,1.40
2019-01-03T12:44:43.095Z,1.80
2019-01-03T12:49:48.774Z,1.73
2019-01-03T12:54:56.482Z,1.30
2019-01-03T13:00:03.214Z,1.40
2019-01-03T13:05:10.273Z,1.80
2019-01-03T13:10:16.341Z,1.40
2019-01-03T13:15:22.068Z,1.33
2019-01-03T13:20:28.419Z,2.17
2019-01-03T13:25:35.913Z,1.30
2019-01-03T13:30:41.761Z,1.50
2019-01-03T13:35:47.449Z,1.57
2019-01-03T13:40:54.185Z,1.70
2019-01-03T13:46:01.373Z,1.63
2019-01-03T13:51:07.509Z,2.63
2019-01-03T13:56:13.943Z,1.70
2019-01-03T14:01:20.955Z,1.50
2019-01-03T14:06:27.305Z,1.40
2019-01-03T14:11:35.968Z,1.37
2019-01-03T14:16:43.537Z,1.13
2019-01-03T14:21:50.253Z,1.53
2019-01-03T14:26:57.484Z,1.47
2019-01-03T14:32:05.077Z,1.23
2019-01-03T14:37:11.310Z,1.47
2019-01-03T14:42:17.685Z,1.93
2019-01-03T14:47:23.779Z,1.80
2019-01-03T14:52:30.552Z,1.90
2019-01-03T14:57:37.922Z,1.30
2019-01-03T15:02:44.448Z,1.93
2019-01-03T15:07:49.825Z,1.47
2019-01-03T15:12:56.264Z,1.30
2019-01-03T15:18:02.293Z,1.30
2019-01-03T15:23:07.694Z,1.53
2019-01-03T15:28:13.651Z,1.40
2019-01-03T15:33:20.701Z,1.60
2019-01-03T15:38:26.765Z,2.20
2019-01-03T15:43:33.761Z,2.00
2019-01-03T15:48:40.041Z,2.27
2019-01-03T15:53:45.873Z,2.20
2019-01-03T15:58:52.944Z,2.17
2019-01-03T16:04:00.094Z,1.73
2019-01-03T16:09:09.746Z,1.90
2019-01-03T16:14:16.501Z,1.93
2019-01-03T16:19:23.568Z,1.90
2019-01-03T16:24:29.836Z,1.80
2019-01-03T16:29:36.747Z,1.73
2019-01-03T16:34:43.037Z,1.90
2019-01-03T16:39:50.061Z,2.20
2019-01-03T16:44:57.401Z,2.10
2019-01-03T16:50:04.561Z,2.37
2019-01-03T16:55:11.260Z,2.10
2019-01-03T17:00:18.212Z,2.40
2019-01-03T17:05:24.674Z,2.70
2019-01-03T17:10:31.085Z,2.70
2019-01-03T17:15:37.080Z,2.77
2019-01-03T17:20:42.953Z,2.73
2019-01-03T17:25:49.751Z,2.50
2019-01-03T17:30:56.238Z,2.30
2019-01-03T17:36:04.112Z,2.53
2019-01-03T17:41:10.485Z,2.43
2019-01-03T17:46:15.861Z,2.90
2019-01-03T17:51:23.872Z,2.30
2019-01-03T17:56:30.242Z,2.57
2019-01-03T18:01:35.338Z,2.63
2019-01-03T18:06:42.382Z,2.60
2019-01-03T18:11:50.001Z,2.33
2019-01-03T18:16:57.236Z,2.17
2019-01-03T18:22:02.892Z,2.80
2019-01-03T18:27:09.086Z,2.67
2019-01-03T18:32:14.967Z,2.60
2019-01-03T18:37:20.984Z,3.43
2019-01-03T18:42:26.198Z,2.93
2019-01-03T18:47:32.760Z,3.63
2019-01-03T18:52:38.576Z,3.40
2019-01-03T18:57:44.147Z,3.37
2019-01-03T19:02:49.804Z,3.43
2019-01-03T19:07:56.720Z,2.83
2019-01-03T19:13:05.261Z,3.60
2019-01-03T19:18:10.276Z,3.50
2019-01-03T19:23:15.590Z,3.23
2019-01-03T19:28:22.968Z,4.00
2019-01-03T19:33:29.869Z,3.60
2019-01-03T19:38:36.306Z,4.33
2019-01-03T19:43:42.393Z,3.93
2019-01-03T19:48:50.242Z,3.50
2019-01-03T19:53:55.623Z,3.50
2019-01-03T19:59:03.969Z,3.57
2019-01-03T20:04:13.370Z,3.23
2019-01-03T20:09:22.034Z,3.60
2019-01-03T20:14:27.739Z,3.60
2019-01-03T20:19:34.525Z,3.23
2019-01-03T20:24:40.211Z,3.27
2019-01-03T20:29:46.703Z,3.83
2019-01-03T20:34:54.892Z,3.97
2019-01-03T20:40:01.630Z,4.03
2019-01-03T20:45:10.993Z,3.80
2019-01-03T20:50:17.007Z,5.80
2019-01-03T20:55:23.661Z,5.20
2019-01-03T21:00:30.545Z,5.47
2019-01-03T21:05:36.621Z,5.10
2019-01-03T21:10:42.998Z,4.83
2019-01-03T21:15:49.165Z,4.30
2019-01-03T21:20:55.569Z,5.17
2019-01-03T21:26:01.782Z,5.27
2019-01-03T21:31:08.242Z,4.80
2019-01-03T21:36:16.359Z,5.13
2019-01-03T21:41:23.024Z,5.50
2019-01-03T21:46:30.072Z,6.10
2019-01-03T21:51:37.970Z,7.87
2019-01-03T21:56:45.016Z,7.60
2019-01-03T22:01:50.593Z,6.17
2019-01-03T22:06:57.773Z,5.70
2019-01-03T22:12:03.779Z,5.70
2019-01-03T22:17:09.735Z,5.30
2019-01-03T22:22:18.576Z,4.73
2019-01-03T22:27:28.960Z,5.40
2019-01-03T22:32:35.692Z,4.53
2019-01-03T22:37:41.454Z,4.23
2019-01-03T22:42:47.451Z,4.33
2019-01-03T22:47:56.232Z,6.00
2019-01-03T22:53:03.078Z,5.23
2019-01-03T22:58:11.294Z,5.30
2019-01-03T23:03:17.125Z,4.53
2019-01-03T23:08:23.501Z,4.57
2019-01-03T23:13:30.765Z,5.17
2019-01-03T23:18:38.441Z,4.77
2019-01-03T23:23:44.448Z,4.53
2019-01-03T23:28:50.613Z,4.90
2019-01-03T23:33:56.143Z,5.60
2019-01-03T23:39:02.964Z,5.17
2019-01-03T23:44:08.941Z,4.73
2019-01-03T23:49:15.842Z,5.33
2019-01-03T23:54:21.868Z,5.97
2019-01-03T23:59:28.857Z,4.87
